Terminal Aerodrome Forecast
Issued by NWS

Home | Current Version | Previous Version | Graphics & Text | Print | Product List | Glossary On
Versions: 1 2 3 4 5 6 7 8 9 10 11 12 13 14 15 16 17 18 19
637
FTUS43 KMPX 170531
TAFRWF
TAF
KRWF 170531Z 1706/1806 30025G40KT 2SM RA BR SCT010 BKN018
     FM170900 30020G30KT 4SM -RA BR BKN010
     FM171400 31016G25KT 6SM BR VCSH OVC008
     FM171800 31017G26KT P6SM OVC015
     FM172100 31015G23KT P6SM SCT015 BKN040
     FM180000 30010KT P6SM SCT040 SCT250=

USA.gov is the U.S. government's official web portal to all federal, state and local government web resources and services.